createdAt,value
2018-08-28T00:01:30.789Z,16.60
2018-08-28T00:03:59.229Z,16.60
2018-08-28T00:06:27.727Z,16.60
2018-08-28T00:08:56.200Z,16.60
2018-08-28T00:11:24.688Z,16.60
2018-08-28T00:13:53.153Z,16.60
2018-08-28T00:16:21.591Z,16.60
2018-08-28T00:18:50.078Z,16.60
2018-08-28T00:21:18.555Z,16.60
2018-08-28T00:23:47.002Z,16.60
2018-08-28T00:26:15.464Z,16.60
2018-08-28T00:28:43.910Z,16.60
2018-08-28T00:31:12.341Z,16.60
2018-08-28T00:33:40.811Z,16.60
2018-08-28T00:36:09.251Z,16.50
2018-08-28T00:38:37.702Z,16.60
2018-08-28T00:41:06.202Z,16.50
2018-08-28T00:43:34.642Z,16.50
2018-08-28T00:46:03.103Z,16.50
2018-08-28T00:48:31.574Z,16.50
2018-08-28T00:50:59.998Z,16.50
2018-08-28T00:53:28.428Z,16.50
2018-08-28T00:55:56.856Z,16.50
2018-08-28T00:58:25.290Z,16.50
2018-08-28T01:00:53.730Z,16.50
2018-08-28T01:03:22.160Z,16.50
2018-08-28T01:05:50.629Z,16.50
2018-08-28T01:08:19.101Z,16.50
2018-08-28T01:10:47.541Z,16.50
2018-08-28T01:13:15.982Z,16.50
2018-08-28T01:15:44.442Z,16.50
2018-08-28T01:18:12.869Z,16.50
2018-08-28T01:20:41.329Z,16.50
2018-08-28T01:23:09.760Z,16.50
2018-08-28T01:25:38.197Z,16.50
2018-08-28T01:28:06.694Z,16.40
2018-08-28T01:30:35.829Z,16.50
2018-08-28T01:33:06.364Z,16.50
2018-08-28T01:35:35.243Z,16.50
2018-08-28T01:38:03.727Z,16.50
2018-08-28T01:40:32.235Z,16.50
2018-08-28T01:43:01.227Z,16.50
2018-08-28T01:45:29.772Z,16.50
2018-08-28T01:47:58.193Z,16.50
2018-08-28T01:50:26.767Z,16.50
2018-08-28T01:52:55.184Z,16.50
2018-08-28T01:55:23.604Z,16.50
2018-08-28T01:57:52.059Z,16.50
2018-08-28T02:00:20.595Z,16.50
2018-08-28T02:02:49.037Z,16.50
2018-08-28T02:05:17.509Z,16.40
2018-08-28T02:07:45.970Z,16.40
2018-08-28T02:10:14.436Z,16.40
2018-08-28T02:12:42.908Z,16.40
2018-08-28T02:15:11.341Z,16.50
2018-08-28T02:17:40.019Z,16.40
2018-08-28T02:20:08.541Z,16.40
2018-08-28T02:22:37.026Z,16.40
2018-08-28T02:25:06.403Z,16.40
2018-08-28T02:27:35.060Z,16.50
2018-08-28T02:30:03.521Z,16.50
2018-08-28T02:32:31.946Z,16.50
2018-08-28T02:35:00.520Z,16.40
2018-08-28T02:37:29.098Z,16.40
2018-08-28T02:39:57.617Z,16.40
2018-08-28T02:42:26.126Z,16.40
2018-08-28T02:44:54.588Z,16.40
2018-08-28T02:47:23.100Z,16.40
2018-08-28T02:49:51.649Z,16.40
2018-08-28T02:52:20.342Z,16.40
2018-08-28T02:54:48.828Z,16.40
2018-08-28T02:57:17.286Z,16.40
2018-08-28T02:59:45.774Z,16.40
2018-08-28T03:02:14.196Z,16.40
2018-08-28T03:04:42.676Z,16.40
2018-08-28T03:07:11.173Z,16.30
2018-08-28T03:09:39.795Z,16.30
2018-08-28T03:12:08.282Z,16.30
2018-08-28T03:14:36.707Z,16.30
2018-08-28T03:17:05.281Z,16.30
2018-08-28T03:19:33.731Z,16.30
2018-08-28T03:22:02.169Z,16.30
2018-08-28T03:24:30.643Z,16.30
2018-08-28T03:26:59.092Z,16.30
2018-08-28T03:29:27.547Z,16.30
2018-08-28T03:31:55.964Z,16.30
2018-08-28T03:34:24.409Z,16.30
2018-08-28T03:36:52.915Z,16.30
2018-08-28T03:39:21.450Z,16.30
2018-08-28T03:41:49.897Z,16.30
2018-08-28T03:44:18.336Z,16.30
2018-08-28T03:46:46.847Z,16.30
2018-08-28T03:49:15.294Z,16.20
2018-08-28T03:51:43.798Z,16.20
2018-08-28T03:54:12.248Z,16.20
2018-08-28T03:56:40.665Z,16.10
2018-08-28T03:59:09.108Z,16.10
2018-08-28T04:01:37.559Z,16.10
2018-08-28T04:04:06.268Z,16.10
2018-08-28T04:06:34.746Z,16.10
2018-08-28T04:09:03.247Z,16.00
2018-08-28T04:11:31.680Z,16.00
2018-08-28T04:14:00.158Z,16.00
2018-08-28T04:16:28.620Z,16.00
2018-08-28T04:18:57.104Z,16.00
2018-08-28T04:21:25.579Z,16.00
2018-08-28T04:23:54.025Z,16.00
2018-08-28T04:26:22.521Z,16.00
2018-08-28T04:28:50.955Z,16.00
2018-08-28T04:31:19.423Z,16.00
2018-08-28T04:33:47.867Z,16.00
2018-08-28T04:36:16.331Z,16.00
2018-08-28T04:38:44.776Z,16.00
2018-08-28T04:41:13.244Z,16.00
2018-08-28T04:43:41.682Z,16.00
2018-08-28T04:46:10.164Z,16.10
2018-08-28T04:48:38.640Z,16.10
2018-08-28T04:51:07.119Z,16.10
2018-08-28T04:53:35.575Z,16.10
2018-08-28T04:56:04.047Z,16.10
2018-08-28T04:58:32.500Z,16.10
2018-08-28T05:01:00.982Z,16.10
2018-08-28T05:03:29.468Z,16.10
2018-08-28T05:05:57.904Z,16.10
2018-08-28T05:08:26.496Z,16.10
2018-08-28T05:10:55.000Z,16.20
2018-08-28T05:13:23.478Z,16.10
2018-08-28T05:15:51.970Z,16.20
2018-08-28T05:18:20.386Z,16.20
2018-08-28T05:20:48.904Z,16.30
2018-08-28T05:23:17.364Z,16.20
2018-08-28T05:25:46.024Z,16.30
2018-08-28T05:28:14.536Z,16.30
2018-08-28T05:30:43.102Z,16.30
2018-08-28T05:33:11.624Z,16.30
2018-08-28T05:35:40.186Z,16.30
2018-08-28T05:38:09.019Z,16.30
2018-08-28T05:40:37.955Z,16.30
2018-08-28T05:43:06.420Z,16.30
2018-08-28T05:45:34.890Z,16.30
2018-08-28T05:48:03.313Z,16.40
2018-08-28T05:50:31.820Z,16.40
2018-08-28T05:53:00.291Z,16.40
2018-08-28T05:55:28.754Z,16.40
2018-08-28T05:57:57.227Z,16.40
2018-08-28T06:00:25.699Z,16.50
2018-08-28T06:02:54.164Z,16.50
2018-08-28T06:05:22.649Z,16.50
2018-08-28T06:07:51.233Z,16.50
2018-08-28T06:10:19.697Z,16.50
2018-08-28T06:12:48.175Z,16.60
2018-08-28T06:15:16.655Z,16.60
2018-08-28T06:17:45.285Z,16.60
2018-08-28T06:20:13.952Z,16.70
2018-08-28T06:22:46.638Z,16.70
2018-08-28T06:25:15.251Z,16.70
2018-08-28T06:27:43.745Z,16.80
2018-08-28T06:30:12.327Z,16.80
2018-08-28T06:32:40.813Z,16.80
2018-08-28T06:35:09.440Z,16.90
2018-08-28T06:37:37.993Z,17.00
2018-08-28T06:40:06.544Z,17.00
2018-08-28T06:42:35.049Z,17.00
2018-08-28T06:45:03.621Z,17.00
2018-08-28T06:47:32.121Z,17.00
2018-08-28T06:50:00.662Z,17.00
2018-08-28T06:52:29.185Z,17.10
2018-08-28T06:54:57.805Z,17.30
2018-08-28T06:57:26.339Z,17.20
2018-08-28T06:59:54.863Z,17.20
2018-08-28T07:02:23.439Z,17.20
2018-08-28T07:04:51.903Z,17.30
2018-08-28T07:07:20.404Z,17.40
2018-08-28T07:09:48.912Z,17.60
2018-08-28T07:12:17.438Z,17.70
2018-08-28T07:14:45.948Z,17.80
2018-08-28T07:17:14.538Z,17.80
2018-08-28T07:19:43.084Z,17.80
2018-08-28T07:22:11.614Z,17.90
2018-08-28T07:24:40.132Z,18.00
2018-08-28T07:27:15.211Z,18.30
2018-08-28T07:29:44.547Z,18.40
2018-08-28T07:32:20.449Z,18.60
2018-08-28T07:34:48.995Z,18.80
2018-08-28T07:37:17.558Z,18.90
2018-08-28T07:39:46.058Z,18.80
2018-08-28T07:42:14.590Z,18.60
2018-08-28T07:44:43.078Z,18.60
2018-08-28T07:47:11.557Z,18.70
2018-08-28T07:49:40.012Z,18.90
2018-08-28T07:52:08.575Z,19.20
2018-08-28T07:54:37.132Z,19.40
2018-08-28T07:57:05.634Z,19.60
2018-08-28T07:59:34.218Z,19.70
2018-08-28T08:02:02.750Z,19.80
2018-08-28T08:04:31.229Z,20.00
2018-08-28T08:06:59.729Z,20.10
2018-08-28T08:09:28.174Z,20.10
2018-08-28T08:11:56.691Z,20.20
2018-08-28T08:14:25.185Z,20.30
2018-08-28T08:16:53.689Z,20.10
2018-08-28T08:19:22.167Z,20.00
2018-08-28T08:21:50.663Z,20.10
2018-08-28T08:24:19.118Z,20.10
2018-08-28T08:26:47.587Z,20.20
2018-08-28T08:29:16.125Z,20.30
2018-08-28T08:31:44.635Z,20.30
2018-08-28T08:34:13.179Z,20.50
2018-08-28T08:36:41.648Z,20.50
2018-08-28T08:39:10.939Z,20.70
2018-08-28T08:41:40.018Z,20.90
2018-08-28T08:44:08.547Z,20.90
2018-08-28T08:46:37.054Z,21.00
2018-08-28T08:49:05.660Z,21.10
2018-08-28T08:51:34.134Z,21.10
2018-08-28T08:54:02.647Z,21.30
2018-08-28T08:56:31.120Z,21.10
2018-08-28T08:58:59.604Z,21.00
2018-08-28T09:01:28.039Z,21.20
2018-08-28T09:03:56.527Z,21.50
2018-08-28T09:06:24.988Z,21.60
2018-08-28T09:08:53.472Z,21.60
2018-08-28T09:11:22.054Z,21.90
2018-08-28T09:13:50.528Z,21.90
2018-08-28T09:16:19.068Z,22.00
2018-08-28T09:18:47.545Z,22.10
2018-08-28T09:21:16.046Z,22.30
2018-08-28T09:23:44.485Z,22.20
2018-08-28T09:26:13.198Z,22.30
2018-08-28T09:28:41.613Z,22.00
2018-08-28T09:31:10.111Z,21.80
2018-08-28T09:33:38.628Z,21.50
2018-08-28T09:36:07.121Z,21.40
2018-08-28T09:38:36.746Z,21.60
2018-08-28T09:41:05.869Z,21.80
2018-08-28T09:43:34.318Z,21.80
2018-08-28T09:46:02.785Z,21.80
2018-08-28T09:48:31.912Z,21.90
2018-08-28T09:51:01.155Z,22.50
2018-08-28T09:53:29.629Z,24.20
2018-08-28T09:55:58.733Z,25.40
2018-08-28T09:58:27.187Z,24.90
2018-08-28T10:01:01.060Z,24.20
2018-08-28T10:03:29.516Z,23.80
2018-08-28T10:05:58.019Z,23.20
2018-08-28T10:08:26.461Z,22.70
2018-08-28T10:10:54.945Z,22.20
2018-08-28T10:13:23.390Z,21.80
2018-08-28T10:15:51.873Z,21.40
2018-08-28T10:18:20.309Z,21.30
2018-08-28T10:20:48.763Z,21.60
2018-08-28T10:23:17.229Z,21.30
2018-08-28T10:25:45.696Z,21.00
2018-08-28T10:28:14.158Z,20.90
2018-08-28T10:30:42.610Z,21.00
2018-08-28T10:33:11.021Z,21.10
2018-08-28T10:35:39.719Z,21.30
2018-08-28T10:38:08.189Z,21.50
2018-08-28T10:40:36.605Z,21.90
2018-08-28T10:43:05.117Z,22.50
2018-08-28T10:45:33.551Z,23.10
2018-08-28T10:48:02.021Z,23.20
2018-08-28T10:50:30.592Z,23.40
2018-08-28T10:52:59.148Z,23.20
2018-08-28T10:55:27.520Z,22.90
2018-08-28T10:57:55.962Z,22.70
2018-08-28T11:00:24.426Z,22.80
2018-08-28T11:02:52.846Z,23.10
2018-08-28T11:05:21.368Z,23.10
2018-08-28T11:07:49.888Z,23.20
2018-08-28T11:10:18.312Z,23.30
2018-08-28T11:12:46.736Z,23.20
2018-08-28T11:15:15.251Z,23.00
2018-08-28T11:17:43.705Z,23.10
2018-08-28T11:20:12.193Z,22.90
2018-08-28T11:22:40.639Z,23.10
2018-08-28T11:25:09.504Z,23.40
2018-08-28T11:27:37.974Z,23.80
2018-08-28T11:30:06.494Z,23.90
2018-08-28T11:32:34.918Z,24.00
2018-08-28T11:35:03.393Z,24.20
2018-08-28T11:37:31.840Z,24.40
2018-08-28T11:40:00.262Z,24.30
2018-08-28T11:42:28.763Z,24.00
2018-08-28T11:44:57.196Z,24.00
2018-08-28T11:47:25.697Z,23.90
2018-08-28T11:49:54.149Z,24.30
2018-08-28T11:52:22.675Z,24.70
2018-08-28T11:54:51.121Z,24.90
2018-08-28T11:57:19.671Z,24.70
2018-08-28T11:59:48.153Z,24.50
2018-08-28T12:02:16.664Z,24.70
2018-08-28T12:04:45.191Z,24.60
2018-08-28T12:07:13.739Z,24.60
2018-08-28T12:09:42.126Z,24.70
2018-08-28T12:12:10.642Z,24.90
2018-08-28T12:14:39.123Z,24.90
2018-08-28T12:17:07.687Z,24.70
2018-08-28T12:19:36.204Z,24.90
2018-08-28T12:22:04.789Z,25.60
2018-08-28T12:24:33.289Z,25.80
2018-08-28T12:27:01.770Z,25.90
2018-08-28T12:29:30.268Z,25.80
2018-08-28T12:31:58.773Z,25.70
2018-08-28T12:34:27.223Z,25.40
2018-08-28T12:36:55.766Z,25.30
2018-08-28T12:39:24.153Z,25.10
2018-08-28T12:41:52.663Z,25.10
2018-08-28T12:44:21.106Z,25.00
2018-08-28T12:46:49.545Z,24.80
2018-08-28T12:49:17.968Z,24.60
2018-08-28T12:51:46.452Z,24.70
2018-08-28T12:54:14.873Z,24.90
2018-08-28T12:56:43.310Z,24.60
2018-08-28T12:59:12.179Z,24.40
2018-08-28T13:01:40.640Z,24.20
2018-08-28T13:04:09.098Z,24.00
2018-08-28T13:06:37.635Z,23.70
2018-08-28T13:09:07.422Z,23.30
2018-08-28T13:11:35.891Z,23.30
2018-08-28T13:14:11.180Z,23.40
2018-08-28T13:16:39.680Z,23.40
2018-08-28T13:19:08.338Z,23.20
2018-08-28T13:21:36.805Z,23.00
2018-08-28T13:24:05.313Z,23.00
2018-08-28T13:26:33.737Z,23.30
2018-08-28T13:29:02.225Z,23.60
2018-08-28T13:31:30.723Z,23.60
2018-08-28T13:33:59.179Z,23.30
2018-08-28T13:36:27.643Z,23.30
2018-08-28T13:38:56.099Z,23.70
2018-08-28T13:41:24.569Z,24.30
2018-08-28T13:43:53.100Z,24.60
2018-08-28T13:46:21.559Z,24.70
2018-08-28T13:48:50.083Z,24.90
2018-08-28T13:51:18.565Z,24.80
2018-08-28T13:53:47.099Z,24.50
2018-08-28T13:56:15.510Z,24.50
2018-08-28T13:58:43.988Z,24.70
2018-08-28T14:01:12.437Z,24.60
2018-08-28T14:03:40.898Z,24.60
2018-08-28T14:06:09.333Z,24.60
2018-08-28T14:08:37.778Z,24.70
2018-08-28T14:11:06.235Z,25.00
2018-08-28T14:13:34.705Z,25.70
2018-08-28T14:16:03.219Z,27.60
2018-08-28T14:18:31.678Z,29.70
2018-08-28T14:21:00.153Z,29.90
2018-08-28T14:23:28.676Z,29.60
2018-08-28T14:25:57.208Z,30.10
2018-08-28T14:28:25.656Z,30.60
2018-08-28T14:30:54.110Z,31.30
2018-08-28T14:33:22.573Z,32.20
2018-08-28T14:35:51.057Z,32.90
2018-08-28T14:38:19.557Z,33.10
2018-08-28T14:40:48.004Z,33.10
2018-08-28T14:43:16.444Z,32.10
2018-08-28T14:45:44.894Z,31.10
2018-08-28T14:48:13.367Z,30.80
2018-08-28T14:50:41.840Z,30.80
2018-08-28T14:53:10.333Z,30.70
2018-08-28T14:55:38.780Z,30.50
2018-08-28T14:58:07.289Z,30.70
2018-08-28T15:00:35.842Z,30.80
2018-08-28T15:03:04.372Z,31.10
2018-08-28T15:05:32.762Z,29.60
2018-08-28T15:08:01.168Z,28.30
2018-08-28T15:10:29.656Z,26.80
2018-08-28T15:12:58.112Z,25.70
2018-08-28T15:15:26.617Z,24.90
2018-08-28T15:17:55.176Z,24.80
2018-08-28T15:20:23.632Z,25.20
2018-08-28T15:22:52.063Z,25.60
2018-08-28T15:25:20.554Z,25.90
2018-08-28T15:27:49.072Z,26.00
2018-08-28T15:30:17.543Z,25.90
2018-08-28T15:32:46.098Z,25.40
2018-08-28T15:35:14.606Z,25.10
2018-08-28T15:37:43.127Z,24.60
2018-08-28T15:40:11.703Z,24.60
2018-08-28T15:42:40.177Z,24.50
2018-08-28T15:45:08.751Z,24.40
2018-08-28T15:47:37.292Z,24.40
2018-08-28T15:50:05.860Z,24.20
2018-08-28T15:52:34.339Z,24.10
2018-08-28T15:55:02.867Z,24.00
2018-08-28T15:57:31.370Z,24.00
2018-08-28T15:59:59.962Z,23.80
2018-08-28T16:02:28.538Z,23.80
2018-08-28T16:04:57.174Z,23.70
2018-08-28T16:07:25.636Z,23.50
2018-08-28T16:09:54.162Z,23.40
2018-08-28T16:12:22.646Z,23.20
2018-08-28T16:14:51.143Z,23.20
2018-08-28T16:17:19.665Z,23.10
2018-08-28T16:19:48.167Z,23.10
2018-08-28T16:22:21.184Z,22.90
2018-08-28T16:24:49.698Z,22.80
2018-08-28T16:27:18.168Z,22.70
2018-08-28T16:29:46.689Z,22.60
2018-08-28T16:32:15.158Z,22.50
2018-08-28T16:34:43.657Z,22.50
2018-08-28T16:37:12.145Z,22.40
2018-08-28T16:39:40.713Z,22.30
2018-08-28T16:42:09.246Z,22.30
2018-08-28T16:44:37.736Z,22.20
2018-08-28T16:47:06.243Z,22.10
2018-08-28T16:49:34.769Z,22.10
2018-08-28T16:52:03.278Z,22.10
2018-08-28T16:54:31.772Z,22.00
2018-08-28T16:57:00.253Z,22.00
2018-08-28T16:59:28.715Z,21.90
2018-08-28T17:01:57.256Z,21.80
2018-08-28T17:04:26.865Z,21.60
2018-08-28T17:06:55.348Z,21.60
2018-08-28T17:09:24.018Z,21.50
2018-08-28T17:11:53.883Z,21.50
2018-08-28T17:14:22.467Z,21.50
2018-08-28T17:16:50.979Z,21.40
2018-08-28T17:19:19.486Z,21.30
2018-08-28T17:21:47.939Z,21.30
2018-08-28T17:24:16.529Z,21.20
2018-08-28T17:26:45.015Z,21.10
2018-08-28T17:29:13.517Z,21.00
2018-08-28T17:31:42.161Z,21.00
2018-08-28T17:34:10.726Z,20.90
2018-08-28T17:36:39.229Z,20.80
2018-08-28T17:39:08.135Z,20.70
2018-08-28T17:41:36.727Z,20.70
2018-08-28T17:44:05.287Z,20.60
2018-08-28T17:46:33.802Z,20.60
2018-08-28T17:49:02.367Z,20.50
2018-08-28T17:51:31.990Z,20.40
2018-08-28T17:54:00.486Z,20.30
2018-08-28T17:56:29.068Z,20.30
2018-08-28T17:58:57.609Z,20.20
2018-08-28T18:01:26.246Z,20.10
2018-08-28T18:03:54.732Z,20.00
2018-08-28T18:06:23.167Z,19.90
2018-08-28T18:08:51.746Z,19.80
2018-08-28T18:11:20.195Z,19.80
2018-08-28T18:13:49.438Z,19.60
2018-08-28T18:16:17.964Z,19.50
2018-08-28T18:18:46.523Z,19.40
2018-08-28T18:21:14.981Z,19.30
2018-08-28T18:23:43.472Z,19.20
2018-08-28T18:26:11.923Z,19.10
2018-08-28T18:28:40.423Z,19.00
2018-08-28T18:31:08.895Z,18.90
2018-08-28T18:33:37.394Z,18.80
2018-08-28T18:36:06.069Z,18.70
2018-08-28T18:38:34.517Z,18.60
2018-08-28T18:41:03.173Z,18.50
2018-08-28T18:43:31.532Z,18.40
2018-08-28T18:46:00.039Z,18.30
2018-08-28T18:48:28.472Z,18.20
2018-08-28T18:50:56.974Z,18.10
2018-08-28T18:53:25.451Z,18.00
2018-08-28T18:55:53.936Z,17.90
2018-08-28T18:58:25.690Z,17.80
2018-08-28T19:00:54.156Z,17.60
2018-08-28T19:03:22.614Z,17.60
2018-08-28T19:05:51.031Z,17.50
2018-08-28T19:08:19.511Z,17.40
2018-08-28T19:10:47.977Z,17.40
2018-08-28T19:13:16.584Z,17.40
2018-08-28T19:15:45.316Z,17.30
2018-08-28T19:18:20.725Z,17.20
2018-08-28T19:20:49.266Z,17.20
2018-08-28T19:23:17.788Z,17.10
2018-08-28T19:25:46.263Z,17.00
2018-08-28T19:28:14.775Z,17.00
2018-08-28T19:30:43.304Z,16.90
2018-08-28T19:33:11.784Z,16.80
2018-08-28T19:35:40.249Z,16.80
2018-08-28T19:38:09.299Z,16.70
2018-08-28T19:40:37.978Z,16.70
2018-08-28T19:43:06.434Z,16.60
2018-08-28T19:45:34.884Z,16.60
2018-08-28T19:48:03.352Z,16.50
2018-08-28T19:50:31.807Z,16.50
2018-08-28T19:53:00.353Z,16.40
2018-08-28T19:55:28.810Z,16.40
2018-08-28T19:57:57.318Z,16.40
2018-08-28T20:00:25.913Z,16.30
2018-08-28T20:02:54.423Z,16.20
2018-08-28T20:05:22.892Z,16.20
2018-08-28T20:07:51.402Z,16.10
2018-08-28T20:10:19.966Z,16.10
2018-08-28T20:12:48.402Z,16.00
2018-08-28T20:15:16.854Z,15.90
2018-08-28T20:17:45.378Z,15.90
2018-08-28T20:20:13.834Z,15.80
2018-08-28T20:22:42.283Z,15.80
2018-08-28T20:25:10.800Z,15.70
2018-08-28T20:27:39.270Z,15.70
2018-08-28T20:30:08.066Z,15.70
2018-08-28T20:32:36.523Z,15.60
2018-08-28T20:35:06.454Z,15.60
2018-08-28T20:37:34.908Z,15.60
2018-08-28T20:40:03.396Z,15.50
2018-08-28T20:42:31.894Z,15.50
2018-08-28T20:45:00.374Z,15.40
2018-08-28T20:47:28.805Z,15.40
2018-08-28T20:49:57.243Z,15.30
2018-08-28T20:52:25.707Z,15.30
2018-08-28T20:54:54.197Z,15.30
2018-08-28T20:57:22.717Z,15.20
2018-08-28T20:59:51.208Z,15.20
2018-08-28T21:02:19.732Z,15.20
2018-08-28T21:04:48.179Z,15.10
2018-08-28T21:07:16.597Z,15.10
2018-08-28T21:09:45.136Z,15.10
2018-08-28T21:12:13.631Z,15.10
2018-08-28T21:14:42.074Z,15.00
2018-08-28T21:17:10.524Z,15.00
2018-08-28T21:19:39.059Z,15.00
2018-08-28T21:22:07.509Z,14.90
2018-08-28T21:24:35.996Z,14.90
2018-08-28T21:27:04.464Z,14.90
2018-08-28T21:29:33.014Z,14.90
2018-08-28T21:32:01.414Z,14.80
2018-08-28T21:34:29.878Z,14.80
2018-08-28T21:36:58.326Z,14.80
2018-08-28T21:39:26.783Z,14.70
2018-08-28T21:41:55.244Z,14.70
2018-08-28T21:44:23.713Z,14.60
2018-08-28T21:46:52.218Z,14.60
2018-08-28T21:49:20.653Z,14.60
2018-08-28T21:51:49.130Z,14.60
2018-08-28T21:54:17.634Z,14.60
2018-08-28T21:56:46.053Z,14.60
2018-08-28T21:59:14.476Z,14.50
2018-08-28T22:01:42.911Z,14.50
2018-08-28T22:04:11.365Z,14.50
2018-08-28T22:06:45.162Z,14.50
2018-08-28T22:09:13.601Z,14.40
2018-08-28T22:11:42.036Z,14.40
2018-08-28T22:14:10.562Z,14.40
2018-08-28T22:16:39.045Z,14.40
2018-08-28T22:19:07.508Z,14.30
2018-08-28T22:21:36.045Z,14.30
2018-08-28T22:24:04.511Z,14.30
2018-08-28T22:26:32.981Z,14.30
2018-08-28T22:29:01.431Z,14.30
2018-08-28T22:31:29.899Z,14.20
2018-08-28T22:33:58.421Z,14.20
2018-08-28T22:36:26.967Z,14.20
2018-08-28T22:38:55.405Z,14.20
2018-08-28T22:41:23.861Z,14.20
2018-08-28T22:43:52.327Z,14.20
2018-08-28T22:46:20.785Z,14.20
2018-08-28T22:48:49.257Z,14.10
2018-08-28T22:51:17.727Z,14.10
2018-08-28T22:53:46.188Z,14.10
2018-08-28T22:56:14.617Z,14.10
2018-08-28T22:58:43.108Z,14.00
2018-08-28T23:01:11.559Z,14.00
2018-08-28T23:03:40.005Z,14.00
2018-08-28T23:06:08.571Z,13.90
2018-08-28T23:08:37.277Z,13.90
2018-08-28T23:11:05.794Z,13.90
2018-08-28T23:13:34.288Z,13.90
2018-08-28T23:16:03.198Z,13.80
2018-08-28T23:18:31.702Z,13.80
2018-08-28T23:21:00.172Z,13.80
2018-08-28T23:23:28.614Z,13.70
2018-08-28T23:25:57.112Z,13.70
2018-08-28T23:28:25.648Z,13.80
2018-08-28T23:30:54.140Z,13.80
2018-08-28T23:33:22.568Z,13.80
2018-08-28T23:35:51.133Z,13.80
2018-08-28T23:38:19.578Z,13.80
2018-08-28T23:40:48.025Z,13.80
2018-08-28T23:43:16.493Z,13.90
2018-08-28T23:45:44.949Z,13.90
2018-08-28T23:48:13.383Z,13.90
2018-08-28T23:50:41.881Z,13.80
2018-08-28T23:53:10.355Z,13.80
2018-08-28T23:55:38.812Z,13.80
2018-08-28T23:58:07.277Z,13.80
